sensor_id;sensor_type;location;lat;lon;timestamp;pressure;altitude;pressure_sealevel;temperature;humidity
42621;BME280;28252;53.336;-6.298;2023-02-15T00:00:32;101393.81;;;23.48;73.96
42621;BME280;28252;53.336;-6.298;2023-02-15T00:01:09;101390.22;;;23.47;74.33
42621;BME280;28252;53.336;-6.298;2023-02-15T00:01:42;101387.66;;;23.46;74.26
42621;BME280;28252;53.336;-6.298;2023-02-15T00:02:16;101391.09;;;23.48;74.38
42621;BME280;28252;53.336;-6.298;2023-02-15T00:02:50;101393.97;;;23.46;74.20
42621;BME280;28252;53.336;-6.298;2023-02-15T00:03:23;101382.22;;;23.46;74.46
42621;BME280;28252;53.336;-6.298;2023-02-15T00:03:56;101384.13;;;23.45;74.45
42621;BME280;28252;53.336;-6.298;2023-02-15T00:04:32;101387.66;;;23.46;74.03
42621;BME280;28252;53.336;-6.298;2023-02-15T00:05:22;101385.13;;;23.44;74.21
42621;BME280;28252;53.336;-6.298;2023-02-15T00:05:53;101384.28;;;23.44;74.33
42621;BME280;28252;53.336;-6.298;2023-02-15T00:06:32;101389.72;;;23.44;74.12
42621;BME280;28252;53.336;-6.298;2023-02-15T00:07:05;101397.03;;;23.43;74.48
42621;BME280;28252;53.336;-6.298;2023-02-15T00:07:41;101391.78;;;23.42;74.27
42621;BME280;28252;53.336;-6.298;2023-02-15T00:08:14;101388.88;;;23.43;74.44
42621;BME280;28252;53.336;-6.298;2023-02-15T00:08:47;101393.47;;;23.43;74.74
42621;BME280;28252;53.336;-6.298;2023-02-15T00:09:18;101390.94;;;23.41;74.50
42621;BME280;28252;53.336;-6.298;2023-02-15T00:09:55;101390.06;;;23.41;74.48
42621;BME280;28252;53.336;-6.298;2023-02-15T00:10:28;101389.22;;;23.40;74.75
42621;BME280;28252;53.336;-6.298;2023-02-15T00:11:05;101388.41;;;23.40;74.71
42621;BME280;28252;53.336;-6.298;2023-02-15T00:11:37;101386.50;;;23.40;74.93
42621;BME280;28252;53.336;-6.298;2023-02-15T00:12:20;101386.69;;;23.39;74.82
42621;BME280;28252;53.336;-6.298;2023-02-15T00:12:55;101387.69;;;23.38;74.64
42621;BME280;28252;53.336;-6.298;2023-02-15T00:13:26;101384.97;;;23.38;74.57
42621;BME280;28252;53.336;-6.298;2023-02-15T00:15:01;101382.47;;;23.36;74.29
42621;BME280;28252;53.336;-6.298;2023-02-15T00:15:32;101392.47;;;23.36;74.77
42621;BME280;28252;53.336;-6.298;2023-02-15T00:16:11;101384.47;;;23.34;74.53
42621;BME280;28252;53.336;-6.298;2023-02-15T00:16:43;101393.50;;;23.35;74.43
42621;BME280;28252;53.336;-6.298;2023-02-15T00:17:14;101385.34;;;23.35;74.25
42621;BME280;28252;53.336;-6.298;2023-02-15T00:17:47;101378.22;;;23.34;74.41
42621;BME280;28252;53.336;-6.298;2023-02-15T00:18:18;101368.16;;;23.34;74.68
42621;BME280;28252;53.336;-6.298;2023-02-15T00:18:51;101375.50;;;23.34;74.63
42621;BME280;28252;53.336;-6.298;2023-02-15T00:19:24;101373.78;;;23.33;74.66
42621;BME280;28252;53.336;-6.298;2023-02-15T00:19:55;101375.66;;;23.32;74.70
42621;BME280;28252;53.336;-6.298;2023-02-15T00:20:26;101380.25;;;23.31;74.78
42621;BME280;28252;53.336;-6.298;2023-02-15T00:21:04;101383.97;;;23.30;74.93
42621;BME280;28252;53.336;-6.298;2023-02-15T00:21:38;101379.41;;;23.31;74.73
42621;BME280;28252;53.336;-6.298;2023-02-15T00:22:11;101376.88;;;23.29;74.47
42621;BME280;28252;53.336;-6.298;2023-02-15T00:22:44;101375.84;;;23.30;74.66
42621;BME280;28252;53.336;-6.298;2023-02-15T00:23:15;101377.88;;;23.28;74.85
42621;BME280;28252;53.336;-6.298;2023-02-15T00:23:48;101376.00;;;23.29;74.75
42621;BME280;28252;53.336;-6.298;2023-02-15T00:24:24;101370.72;;;23.27;75.24
42621;BME280;28252;53.336;-6.298;2023-02-15T00:24:59;101366.34;;;23.26;75.28
42621;BME280;28252;53.336;-6.298;2023-02-15T00:25:39;101366.34;;;23.26;74.95
42621;BME280;28252;53.336;-6.298;2023-02-15T00:26:17;101371.78;;;23.26;75.43
42621;BME280;28252;53.336;-6.298;2023-02-15T00:26:50;101364.63;;;23.25;75.12
42621;BME280;28252;53.336;-6.298;2023-02-15T00:27:23;101365.69;;;23.24;74.91
42621;BME280;28252;53.336;-6.298;2023-02-15T00:27:59;101361.09;;;23.25;74.89
42621;BME280;28252;53.336;-6.298;2023-02-15T00:28:35;101357.53;;;23.24;75.05
42621;BME280;28252;53.336;-6.298;2023-02-15T00:29:10;101354.97;;;23.23;75.40
42621;BME280;28252;53.336;-6.298;2023-02-15T00:29:46;101350.38;;;23.23;75.50
42621;BME280;28252;53.336;-6.298;2023-02-15T00:30:19;101354.09;;;23.22;75.36
42621;BME280;28252;53.336;-6.298;2023-02-15T00:30:56;101347.84;;;23.22;75.32
42621;BME280;28252;53.336;-6.298;2023-02-15T00:31:34;101350.72;;;23.20;75.60
42621;BME280;28252;53.336;-6.298;2023-02-15T00:32:06;101356.16;;;23.20;75.46
42621;BME280;28252;53.336;-6.298;2023-02-15T00:32:40;101349.88;;;23.20;75.48
42621;BME280;28252;53.336;-6.298;2023-02-15T00:33:13;101349.03;;;23.19;75.53
42621;BME280;28252;53.336;-6.298;2023-02-15T00:33:48;101348.19;;;23.19;75.41
42621;BME280;28252;53.336;-6.298;2023-02-15T00:34:24;101336.47;;;23.18;75.32
42621;BME280;28252;53.336;-6.298;2023-02-15T00:34:59;101347.34;;;23.18;75.76
42621;BME280;28252;53.336;-6.298;2023-02-15T00:35:32;101340.19;;;23.17;75.71
42621;BME280;28252;53.336;-6.298;2023-02-15T00:36:10;101343.94;;;23.16;75.57
42621;BME280;28252;53.336;-6.298;2023-02-15T00:36:44;101339.34;;;23.17;75.36
42621;BME280;28252;53.336;-6.298;2023-02-15T00:37:18;101338.53;;;23.16;75.63
42621;BME280;28252;53.336;-6.298;2023-02-15T00:37:55;101325.94;;;23.15;75.46
42621;BME280;28252;53.336;-6.298;2023-02-15T00:38:34;101337.69;;;23.16;75.77
42621;BME280;28252;53.336;-6.298;2023-02-15T00:39:08;101336.81;;;23.15;75.54
42621;BME280;28252;53.336;-6.298;2023-02-15T00:39:40;101328.00;;;23.13;76.05
42621;BME280;28252;53.336;-6.298;2023-02-15T00:40:11;101336.16;;;23.13;75.72
42621;BME280;28252;53.336;-6.298;2023-02-15T00:40:44;101333.44;;;23.13;75.90
42621;BME280;28252;53.336;-6.298;2023-02-15T00:41:25;101330.88;;;23.11;75.90
42621;BME280;28252;53.336;-6.298;2023-02-15T00:41:58;101326.28;;;23.12;76.01
42621;BME280;28252;53.336;-6.298;2023-02-15T00:42:29;101331.72;;;23.12;75.71
42621;BME280;28252;53.336;-6.298;2023-02-15T00:43:02;101330.03;;;23.11;76.31
42621;BME280;28252;53.336;-6.298;2023-02-15T00:43:37;101327.31;;;23.11;76.23
42621;BME280;28252;53.336;-6.298;2023-02-15T00:44:12;101330.03;;;23.11;75.91
42621;BME280;28252;53.336;-6.298;2023-02-15T00:44:43;101325.63;;;23.10;75.92
42621;BME280;28252;53.336;-6.298;2023-02-15T00:45:14;101320.19;;;23.10;75.91
42621;BME280;28252;53.336;-6.298;2023-02-15T00:45:48;101323.94;;;23.09;76.13
42621;BME280;28252;53.336;-6.298;2023-02-15T00:46:24;101317.81;;;23.07;76.32
42621;BME280;28252;53.336;-6.298;2023-02-15T00:47:00;101326.84;;;23.07;76.06
42621;BME280;28252;53.336;-6.298;2023-02-15T00:47:31;101321.56;;;23.06;76.30
42621;BME280;28252;53.336;-6.298;2023-02-15T00:48:02;101315.22;;;23.05;76.07
42621;BME280;28252;53.336;-6.298;2023-02-15T00:48:33;101315.22;;;23.05;76.46
42621;BME280;28252;53.336;-6.298;2023-02-15T00:49:06;101310.69;;;23.06;76.72
42621;BME280;28252;53.336;-6.298;2023-02-15T00:49:37;101317.94;;;23.05;76.50
42621;BME280;28252;53.336;-6.298;2023-02-15T00:50:10;101318.16;;;23.04;77.21
42621;BME280;28252;53.336;-6.298;2023-02-15T00:50:46;101313.72;;;23.03;76.43
42621;BME280;28252;53.336;-6.298;2023-02-15T00:51:24;101313.56;;;23.04;76.95
42621;BME280;28252;53.336;-6.298;2023-02-15T00:51:57;101311.00;;;23.03;76.66
42621;BME280;28252;53.336;-6.298;2023-02-15T00:52:32;101311.00;;;23.03;77.10
42621;BME280;28252;53.336;-6.298;2023-02-15T00:53:11;101310.19;;;23.02;76.83
42621;BME280;28252;53.336;-6.298;2023-02-15T00:53:49;101303.88;;;23.02;77.11
42621;BME280;28252;53.336;-6.298;2023-02-15T00:54:20;101305.91;;;23.00;76.91
42621;BME280;28252;53.336;-6.298;2023-02-15T00:54:56;101303.88;;;23.02;77.24
42621;BME280;28252;53.336;-6.298;2023-02-15T00:55:27;101306.75;;;23.00;77.32
42621;BME280;28252;53.336;-6.298;2023-02-15T00:56:00;101304.25;;;22.99;77.27
42621;BME280;28252;53.336;-6.298;2023-02-15T00:56:33;101301.53;;;22.99;76.88
42621;BME280;28252;53.336;-6.298;2023-02-15T00:57:08;101301.53;;;22.99;77.52
42621;BME280;28252;53.336;-6.298;2023-02-15T00:57:39;101303.38;;;22.98;77.43
42621;BME280;28252;53.336;-6.298;2023-02-15T00:58:12;101298.13;;;22.97;77.43
42621;BME280;28252;53.336;-6.298;2023-02-15T00:58:49;101295.41;;;22.97;77.16
42621;BME280;28252;53.336;-6.298;2023-02-15T00:59:22;101294.56;;;22.96;77.21
42621;BME280;28252;53.336;-6.298;2023-02-15T00:59:56;101300.81;;;22.97;77.18
42621;BME280;28252;53.336;-6.298;2023-02-15T01:00:32;101300.81;;;22.97;77.24
42621;BME280;28252;53.336;-6.298;2023-02-15T01:01:04;101292.84;;;22.95;77.42
42621;BME280;28252;53.336;-6.298;2023-02-15T01:01:40;101291.19;;;22.94;76.96
42621;BME280;28252;53.336;-6.298;2023-02-15T01:02:13;101297.44;;;22.94;77.16
42621;BME280;28252;53.336;-6.298;2023-02-15T01:02:46;101295.78;;;22.93;77.73
42621;BME280;28252;53.336;-6.298;2023-02-15T01:03:26;101303.06;;;22.93;77.65
42621;BME280;28252;53.336;-6.298;2023-02-15T01:04:00;101295.78;;;22.93;77.83
42621;BME280;28252;53.336;-6.298;2023-02-15T01:04:33;101297.78;;;22.91;77.88
42621;BME280;28252;53.336;-6.298;2023-02-15T01:05:12;101296.94;;;22.91;77.59
42621;BME280;28252;53.336;-6.298;2023-02-15T01:05:48;101296.13;;;22.90;77.25
42621;BME280;28252;53.336;-6.298;2023-02-15T01:06:20;101293.41;;;22.90;77.44
42621;BME280;28252;53.336;-6.298;2023-02-15T01:06:53;101294.41;;;22.89;77.54
42621;BME280;28252;53.336;-6.298;2023-02-15T01:07:24;101298.16;;;22.88;77.84
42621;BME280;28252;53.336;-6.298;2023-02-15T01:07:59;101294.56;;;22.88;78.05
42621;BME280;28252;53.336;-6.298;2023-02-15T01:08:30;101287.28;;;22.88;77.69
42621;BME280;28252;53.336;-6.298;2023-02-15T01:09:03;101282.03;;;22.87;78.13
42621;BME280;28252;53.336;-6.298;2023-02-15T01:09:39;101288.31;;;22.87;77.73
42621;BME280;28252;53.336;-6.298;2023-02-15T01:10:12;101283.88;;;22.86;77.85
42621;BME280;28252;53.336;-6.298;2023-02-15T01:10:45;101286.59;;;22.86;77.37
42621;BME280;28252;53.336;-6.298;2023-02-15T01:11:18;101274.91;;;22.86;77.79
42621;BME280;28252;53.336;-6.298;2023-02-15T01:11:52;101279.50;;;22.85;77.89
42621;BME280;28252;53.336;-6.298;2023-02-15T01:12:26;101283.03;;;22.86;78.33
42621;BME280;28252;53.336;-6.298;2023-02-15T01:12:57;101275.91;;;22.85;78.12
42621;BME280;28252;53.336;-6.298;2023-02-15T01:13:33;101272.34;;;22.84;77.84
42621;BME280;28252;53.336;-6.298;2023-02-15T01:14:04;101278.81;;;22.83;77.92
42621;BME280;28252;53.336;-6.298;2023-02-15T01:14:38;101274.41;;;22.82;78.05
42621;BME280;28252;53.336;-6.298;2023-02-15T01:15:21;101270.84;;;22.82;77.99
42621;BME280;28252;53.336;-6.298;2023-02-15T01:15:55;101273.56;;;22.82;77.84
42621;BME280;28252;53.336;-6.298;2023-02-15T01:16:30;101264.53;;;22.81;77.49
42621;BME280;28252;53.336;-6.298;2023-02-15T01:17:06;101273.72;;;22.80;77.97
42621;BME280;28252;53.336;-6.298;2023-02-15T01:17:39;101260.16;;;22.80;78.00
42621;BME280;28252;53.336;-6.298;2023-02-15T01:18:13;101263.03;;;22.79;78.16
42621;BME280;28252;53.336;-6.298;2023-02-15T01:18:47;101266.59;;;22.79;78.20
42621;BME280;28252;53.336;-6.298;2023-02-15T01:19:24;101264.88;;;22.78;77.75
42621;BME280;28252;53.336;-6.298;2023-02-15T01:19:57;101256.94;;;22.77;77.76
42621;BME280;28252;53.336;-6.298;2023-02-15T01:20:34;101255.91;;;22.78;77.71
42621;BME280;28252;53.336;-6.298;2023-02-15T01:21:25;101257.78;;;22.77;77.85
42621;BME280;28252;53.336;-6.298;2023-02-15T01:22:00;101252.34;;;22.77;78.28
42621;BME280;28252;53.336;-6.298;2023-02-15T01:22:33;101255.06;;;22.77;78.18
42621;BME280;28252;53.336;-6.298;2023-02-15T01:23:09;101256.06;;;22.76;78.29
42621;BME280;28252;53.336;-6.298;2023-02-15T01:23:40;101248.97;;;22.75;78.37
42621;BME280;28252;53.336;-6.298;2023-02-15T01:24:12;101252.69;;;22.74;78.19
42621;BME280;28252;53.336;-6.298;2023-02-15T01:24:48;101258.13;;;22.74;78.32
42621;BME280;28252;53.336;-6.298;2023-02-15T01:25:20;101258.13;;;22.74;78.52
42621;BME280;28252;53.336;-6.298;2023-02-15T01:25:55;101250.16;;;22.72;78.28
42621;BME280;28252;53.336;-6.298;2023-02-15T01:26:26;101244.72;;;22.72;78.33
42621;BME280;28252;53.336;-6.298;2023-02-15T01:27:06;101240.31;;;22.71;78.42
42621;BME280;28252;53.336;-6.298;2023-02-15T01:27:42;101243.88;;;22.72;78.44
42621;BME280;28252;53.336;-6.298;2023-02-15T01:28:13;101249.31;;;22.72;78.30
42621;BME280;28252;53.336;-6.298;2023-02-15T01:28:48;101245.94;;;22.70;78.46
42621;BME280;28252;53.336;-6.298;2023-02-15T01:29:20;101241.34;;;22.70;78.88
42621;BME280;28252;53.336;-6.298;2023-02-15T01:29:56;101244.22;;;22.69;78.31
42621;BME280;28252;53.336;-6.298;2023-02-15T01:30:31;101241.50;;;22.69;78.51
42621;BME280;28252;53.336;-6.298;2023-02-15T01:31:09;101236.25;;;22.67;78.83
42621;BME280;28252;53.336;-6.298;2023-02-15T01:31:41;101237.06;;;22.68;78.93
42621;BME280;28252;53.336;-6.298;2023-02-15T01:32:13;101232.69;;;22.67;78.75
42621;BME280;28252;53.336;-6.298;2023-02-15T01:32:52;101233.69;;;22.66;78.52
42621;BME280;28252;53.336;-6.298;2023-02-15T01:33:25;101234.56;;;22.66;79.01
42621;BME280;28252;53.336;-6.298;2023-02-15T01:33:56;101233.69;;;22.66;78.92
42621;BME280;28252;53.336;-6.298;2023-02-15T01:34:28;101222.16;;;22.64;78.57
42621;BME280;28252;53.336;-6.298;2023-02-15T01:35:01;101226.59;;;22.65;78.81
42621;BME280;28252;53.336;-6.298;2023-02-15T01:35:34;101224.03;;;22.63;78.57
42621;BME280;28252;53.336;-6.298;2023-02-15T01:36:07;101225.72;;;22.64;78.66
42621;BME280;28252;53.336;-6.298;2023-02-15T01:36:42;101223.19;;;22.63;78.61
42621;BME280;28252;53.336;-6.298;2023-02-15T01:37:15;101216.06;;;22.62;78.73
42621;BME280;28252;53.336;-6.298;2023-02-15T01:37:46;101216.06;;;22.62;79.19
42621;BME280;28252;53.336;-6.298;2023-02-15T01:38:21;101211.66;;;22.61;78.77
42621;BME280;28252;53.336;-6.298;2023-02-15T01:38:52;101214.38;;;22.61;79.05
42621;BME280;28252;53.336;-6.298;2023-02-15T01:39:29;101209.09;;;22.59;79.14
42621;BME280;28252;53.336;-6.298;2023-02-15T01:40:03;101213.53;;;22.60;79.21
42621;BME280;28252;53.336;-6.298;2023-02-15T01:40:37;101205.56;;;22.59;78.44
42621;BME280;28252;53.336;-6.298;2023-02-15T01:41:11;101207.44;;;22.58;79.20
42621;BME280;28252;53.336;-6.298;2023-02-15T01:41:56;101200.28;;;22.57;79.18
42621;BME280;28252;53.336;-6.298;2023-02-15T01:42:30;101202.19;;;22.56;78.90
42621;BME280;28252;53.336;-6.298;2023-02-15T01:43:07;101202.19;;;22.56;79.27
42621;BME280;28252;53.336;-6.298;2023-02-15T01:43:43;101195.91;;;22.56;78.73
42621;BME280;28252;53.336;-6.298;2023-02-15T01:45:47;101196.25;;;22.53;78.78
42621;BME280;28252;53.336;-6.298;2023-02-15T01:46:20;101194.53;;;22.52;78.88
42621;BME280;28252;53.336;-6.298;2023-02-15T01:46:55;101194.53;;;22.52;79.14
42621;BME280;28252;53.336;-6.298;2023-02-15T01:47:38;101199.13;;;22.51;78.71
42621;BME280;28252;53.336;-6.298;2023-02-15T01:48:47;101189.28;;;22.50;79.15
42621;BME280;28252;53.336;-6.298;2023-02-15T01:49:21;101193.03;;;22.49;78.85
42621;BME280;28252;53.336;-6.298;2023-02-15T01:50:40;101188.44;;;22.50;79.16
42621;BME280;28252;53.336;-6.298;2023-02-15T01:51:17;101183.19;;;22.48;79.03
42621;BME280;28252;53.336;-6.298;2023-02-15T01:51:53;101183.19;;;22.48;79.11
42621;BME280;28252;53.336;-6.298;2023-02-15T01:52:26;101169.63;;;22.48;78.86
42621;BME280;28252;53.336;-6.298;2023-02-15T01:53:50;101174.38;;;22.46;78.76
42621;BME280;28252;53.336;-6.298;2023-02-15T01:54:31;101168.94;;;22.46;78.90
42621;BME280;28252;53.336;-6.298;2023-02-15T01:55:05;101167.25;;;22.45;78.79
42621;BME280;28252;53.336;-6.298;2023-02-15T01:55:45;101160.13;;;22.44;78.94
42621;BME280;28252;53.336;-6.298;2023-02-15T01:56:27;101161.97;;;22.44;78.55
42621;BME280;28252;53.336;-6.298;2023-02-15T01:57:03;101161.16;;;22.43;79.10
42621;BME280;28252;53.336;-6.298;2023-02-15T01:57:40;101157.59;;;22.43;79.41
42621;BME280;28252;53.336;-6.298;2023-02-15T01:58:13;101165.75;;;22.43;78.69
42621;BME280;28252;53.336;-6.298;2023-02-15T01:58:45;101158.44;;;22.43;78.81
42621;BME280;28252;53.336;-6.298;2023-02-15T01:59:21;101165.91;;;22.41;78.62
42621;BME280;28252;53.336;-6.298;2023-02-15T01:59:56;101161.50;;;22.40;78.59
42621;BME280;28252;53.336;-6.298;2023-02-15T02:00:31;101161.50;;;22.40;79.14
42621;BME280;28252;53.336;-6.298;2023-02-15T02:01:05;101163.38;;;22.40;78.94
42621;BME280;28252;53.336;-6.298;2023-02-15T02:01:44;101163.38;;;22.40;78.68
42621;BME280;28252;53.336;-6.298;2023-02-15T02:02:18;101158.94;;;22.38;79.09
42621;BME280;28252;53.336;-6.298;2023-02-15T02:02:53;101156.41;;;22.37;78.67
42621;BME280;28252;53.336;-6.298;2023-02-15T02:04:58;101150.31;;;22.35;78.95
42621;BME280;28252;53.336;-6.298;2023-02-15T02:05:32;101158.44;;;22.35;78.85
42621;BME280;28252;53.336;-6.298;2023-02-15T02:06:11;101157.63;;;22.34;79.05
42621;BME280;28252;53.336;-6.298;2023-02-15T02:06:46;101152.34;;;22.33;78.95
42621;BME280;28252;53.336;-6.298;2023-02-15T02:07:26;101146.09;;;22.32;79.05
42621;BME280;28252;53.336;-6.298;2023-02-15T02:07:58;101156.06;;;22.32;78.80
42621;BME280;28252;53.336;-6.298;2023-02-15T02:08:31;101139.78;;;22.32;79.34
42621;BME280;28252;53.336;-6.298;2023-02-15T02:09:07;101143.53;;;22.31;78.86
42621;BME280;28252;53.336;-6.298;2023-02-15T02:09:40;101148.09;;;22.30;79.01
42621;BME280;28252;53.336;-6.298;2023-02-15T02:10:15;101149.16;;;22.29;79.00
42621;BME280;28252;53.336;-6.298;2023-02-15T02:10:49;101144.56;;;22.30;79.25
42621;BME280;28252;53.336;-6.298;2023-02-15T02:11:20;101135.56;;;22.29;79.14
42621;BME280;28252;53.336;-6.298;2023-02-15T02:11:52;101140.16;;;22.29;79.11
42621;BME280;28252;53.336;-6.298;2023-02-15T02:12:27;101138.47;;;22.28;78.93
42621;BME280;28252;53.336;-6.298;2023-02-15T02:13:04;101138.47;;;22.28;78.85
42621;BME280;28252;53.336;-6.298;2023-02-15T02:13:38;101138.59;;;22.26;78.98
42621;BME280;28252;53.336;-6.298;2023-02-15T02:14:15;101140.47;;;22.26;79.34
42621;BME280;28252;53.336;-6.298;2023-02-15T02:14:47;101132.34;;;22.26;79.30
42621;BME280;28252;53.336;-6.298;2023-02-15T02:15:20;101133.34;;;22.25;79.26
42621;BME280;28252;53.336;-6.298;2023-02-15T02:17:21;101135.38;;;22.23;79.55
42621;BME280;28252;53.336;-6.298;2023-02-15T02:18:02;101139.09;;;22.22;79.48
42621;BME280;28252;53.336;-6.298;2023-02-15T02:30:37;101116.75;;;22.11;80.31
42621;BME280;28252;53.336;-6.298;2023-02-15T02:31:22;101115.06;;;22.10;80.18
42621;BME280;28252;53.336;-6.298;2023-02-15T02:34:01;101118.78;;;22.09;80.44
42621;BME280;28252;53.336;-6.298;2023-02-15T02:34:29;101117.09;;;22.08;80.71
42621;BME280;28252;53.336;-6.298;2023-02-15T02:35:11;101114.38;;;22.08;80.66
42621;BME280;28252;53.336;-6.298;2023-02-15T02:38:28;101113.72;;;22.06;81.14
42621;BME280;28252;53.336;-6.298;2023-02-15T02:40:25;101101.34;;;22.04;80.93
42621;BME280;28252;53.336;-6.298;2023-02-15T02:41:12;101083.38;;;22.02;81.10
42621;BME280;28252;53.336;-6.298;2023-02-15T02:42:49;101106.94;;;22.02;80.96
42621;BME280;28252;53.336;-6.298;2023-02-15T02:43:29;101108.81;;;22.01;81.13
42621;BME280;28252;53.336;-6.298;2023-02-15T02:44:51;101112.38;;;22.02;80.72
42621;BME280;28252;53.336;-6.298;2023-02-15T02:45:32;101110.66;;;22.01;81.19
42621;BME280;28252;53.336;-6.298;2023-02-15T02:46:13;101109.00;;;22.00;80.96
42621;BME280;28252;53.336;-6.298;2023-02-15T02:46:57;101114.41;;;22.00;80.96
42621;BME280;28252;53.336;-6.298;2023-02-15T02:47:34;101111.72;;;22.00;81.24
42621;BME280;28252;53.336;-6.298;2023-02-15T02:48:15;101097.28;;;21.99;81.17
42621;BME280;28252;53.336;-6.298;2023-02-15T02:48:50;101102.88;;;21.98;81.35
42621;BME280;28252;53.336;-6.298;2023-02-15T02:49:38;101111.00;;;21.98;81.39
42621;BME280;28252;53.336;-6.298;2023-02-15T02:50:13;101108.28;;;21.98;81.47
42621;BME280;28252;53.336;-6.298;2023-02-15T02:50:45;101105.78;;;21.96;81.50
42621;BME280;28252;53.336;-6.298;2023-02-15T02:51:16;101113.06;;;21.96;81.77
42621;BME280;28252;53.336;-6.298;2023-02-15T02:51:59;101095.94;;;21.95;81.51
42621;BME280;28252;53.336;-6.298;2023-02-15T02:53:07;101101.38;;;21.95;81.20
42621;BME280;28252;53.336;-6.298;2023-02-15T02:53:39;101086.97;;;21.95;81.54
42621;BME280;28252;53.336;-6.298;2023-02-15T02:54:13;101105.94;;;21.95;82.01
42621;BME280;28252;53.336;-6.298;2023-02-15T02:54:51;101103.41;;;21.93;81.80
42621;BME280;28252;53.336;-6.298;2023-02-15T02:55:32;101097.13;;;21.93;81.89
42621;BME280;28252;53.336;-6.298;2023-02-15T02:56:17;101094.41;;;21.93;82.07
42621;BME280;28252;53.336;-6.298;2023-02-15T02:56:49;101086.28;;;21.93;81.67
42621;BME280;28252;53.336;-6.298;2023-02-15T02:57:25;101084.59;;;21.92;81.70
42621;BME280;28252;53.336;-6.298;2023-02-15T02:58:52;101083.72;;;21.91;81.83
42621;BME280;28252;53.336;-6.298;2023-02-15T02:59:36;101083.72;;;21.91;82.15
42621;BME280;28252;53.336;-6.298;2023-02-15T03:00:09;101088.31;;;21.91;81.64
42621;BME280;28252;53.336;-6.298;2023-02-15T03:01:24;101087.47;;;21.90;81.55
42621;BME280;28252;53.336;-6.298;2023-02-15T03:02:06;101092.06;;;21.90;82.21
42621;BME280;28252;53.336;-6.298;2023-02-15T03:02:47;101085.78;;;21.89;81.57
42621;BME280;28252;53.336;-6.298;2023-02-15T03:03:27;101090.34;;;21.89;82.14
42621;BME280;28252;53.336;-6.298;2023-02-15T03:04:01;101091.38;;;21.88;81.56
42621;BME280;28252;53.336;-6.298;2023-02-15T03:04:36;101090.34;;;21.89;82.05
42621;BME280;28252;53.336;-6.298;2023-02-15T03:05:14;101085.09;;;21.87;82.05
42621;BME280;28252;53.336;-6.298;2023-02-15T03:05:49;101076.13;;;21.87;81.96
42621;BME280;28252;53.336;-6.298;2023-02-15T03:06:26;101085.94;;;21.88;81.93
42621;BME280;28252;53.336;-6.298;2023-02-15T03:07:03;101086.09;;;21.86;81.83
42621;BME280;28252;53.336;-6.298;2023-02-15T03:07:36;101069.00;;;21.86;82.17
42621;BME280;28252;53.336;-6.298;2023-02-15T03:08:11;101073.41;;;21.87;82.20
42621;BME280;28252;53.336;-6.298;2023-02-15T03:08:56;101078.16;;;21.85;81.71
42621;BME280;28252;53.336;-6.298;2023-02-15T03:10:18;101072.75;;;21.85;81.40
42621;BME280;28252;53.336;-6.298;2023-02-15T03:10:55;101065.63;;;21.83;81.57
42621;BME280;28252;53.336;-6.298;2023-02-15T03:11:32;101077.31;;;21.84;82.16
42621;BME280;28252;53.336;-6.298;2023-02-15T03:12:09;101069.16;;;21.84;82.09
42621;BME280;28252;53.336;-6.298;2023-02-15T03:12:47;101062.91;;;21.83;82.00
42621;BME280;28252;53.336;-6.298;2023-02-15T03:13:24;101061.19;;;21.82;82.19
42621;BME280;28252;53.336;-6.298;2023-02-15T03:13:55;101068.50;;;21.82;82.02
42621;BME280;28252;53.336;-6.298;2023-02-15T03:14:29;101063.06;;;21.82;82.45
42621;BME280;28252;53.336;-6.298;2023-02-15T03:15:10;101062.25;;;21.81;82.46
42621;BME280;28252;53.336;-6.298;2023-02-15T03:15:50;101058.66;;;21.81;81.91
42621;BME280;28252;53.336;-6.298;2023-02-15T03:16:42;101058.88;;;21.79;82.29
42621;BME280;28252;53.336;-6.298;2023-02-15T03:17:18;101058.88;;;21.79;82.46
42621;BME280;28252;53.336;-6.298;2023-02-15T03:17:56;101052.56;;;21.79;82.24
42621;BME280;28252;53.336;-6.298;2023-02-15T03:19:05;101055.28;;;21.79;81.96
42621;BME280;28252;53.336;-6.298;2023-02-15T03:19:36;101055.28;;;21.79;82.12
42621;BME280;28252;53.336;-6.298;2023-02-15T03:20:14;101049.19;;;21.77;82.51
42621;BME280;28252;53.336;-6.298;2023-02-15T03:20:49;101051.06;;;21.76;82.31
42621;BME280;28252;53.336;-6.298;2023-02-15T03:21:47;101042.94;;;21.76;82.52
42621;BME280;28252;53.336;-6.298;2023-02-15T03:22:33;101034.81;;;21.76;82.25
42621;BME280;28252;53.336;-6.298;2023-02-15T03:23:14;101033.94;;;21.76;81.80
42621;BME280;28252;53.336;-6.298;2023-02-15T03:23:56;101030.38;;;21.75;82.40
42621;BME280;28252;53.336;-6.298;2023-02-15T03:24:35;101034.13;;;21.74;82.39
42621;BME280;28252;53.336;-6.298;2023-02-15T03:25:14;101039.56;;;21.74;82.11
42621;BME280;28252;53.336;-6.298;2023-02-15T03:25:56;101032.44;;;21.73;82.35
42621;BME280;28252;53.336;-6.298;2023-02-15T03:26:29;101027.84;;;21.74;82.57
42621;BME280;28252;53.336;-6.298;2023-02-15T03:27:02;101029.72;;;21.73;82.19
42621;BME280;28252;53.336;-6.298;2023-02-15T03:27:38;101025.31;;;21.72;82.13
42621;BME280;28252;53.336;-6.298;2023-02-15T03:28:13;101023.63;;;21.71;81.81
42621;BME280;28252;53.336;-6.298;2023-02-15T03:28:49;101027.34;;;21.70;81.65
42621;BME280;28252;53.336;-6.298;2023-02-15T03:29:24;101027.34;;;21.70;82.01
42621;BME280;28252;53.336;-6.298;2023-02-15T03:29:58;101027.34;;;21.70;81.83
42621;BME280;28252;53.336;-6.298;2023-02-15T03:30:30;101021.91;;;21.70;81.87
42621;BME280;28252;53.336;-6.298;2023-02-15T03:31:04;101017.53;;;21.69;82.05
42621;BME280;28252;53.336;-6.298;2023-02-15T03:31:41;101018.53;;;21.68;82.04
42621;BME280;28252;53.336;-6.298;2023-02-15T03:32:15;101020.25;;;21.69;82.23
42621;BME280;28252;53.336;-6.298;2023-02-15T03:32:50;101011.41;;;21.67;82.09
42621;BME280;28252;53.336;-6.298;2023-02-15T03:33:29;101011.41;;;21.67;82.58
42621;BME280;28252;53.336;-6.298;2023-02-15T03:34:08;101014.13;;;21.67;82.59